Time;durP1;ratioP1;P1;durP2;ratioP2;P2;SDS_P1;SDS_P2;PMS_P1;PMS_P2;Temp;Humidity;BMP_temperature;BMP_pressure;BME280_temperature;BME280_humidity;BME280_pressure;Samples;Min_cycle;Max_cycle;Signal;HPM_P1;HPM_P2
2022/04/08 00:01:01;;;;;;;0.70;0.70;;;9.10;99.90;;;;;;5031521;28;20617;-73
2022/04/08 00:03:27;;;;;;;0.70;0.70;;;9.10;99.90;;;;;;5032160;28;20187;-73
2022/04/08 00:05:54;;;;;;;0.80;0.80;;;9.10;99.90;;;;;;5032101;28;20182;-73
2022/04/08 00:08:20;;;;;;;0.70;0.70;;;9.00;99.90;;;;;;5031929;28;20643;-73
2022/04/08 00:10:46;;;;;;;0.70;0.70;;;9.00;99.90;;;;;;5031326;28;20222;-74
2022/04/08 00:13:11;;;;;;;0.63;0.63;;;9.00;99.90;;;;;;5028682;28;20188;-73
2022/04/08 00:15:38;;;;;;;0.70;0.70;;;9.00;99.90;;;;;;5022324;28;20237;-73
2022/04/08 00:18:04;;;;;;;0.73;0.73;;;9.00;99.90;;;;;;5031616;28;20623;-73
2022/04/08 00:20:32;;;;;;;0.70;0.70;;;9.00;99.90;;;;;;5030822;28;20405;-73
2022/04/08 00:22:57;;;;;;;0.80;0.80;;;9.00;99.90;;;;;;5031688;28;20195;-73
2022/04/08 00:25:23;;;;;;;0.70;0.70;;;8.90;1.00;;;;;;5031416;28;20171;-74
2022/04/08 00:27:48;;;;;;;0.80;0.80;;;8.90;99.90;;;;;;5031581;28;20183;-73
2022/04/08 00:30:14;;;;;;;0.70;0.70;;;8.90;99.90;;;;;;5031100;28;20275;-74
2022/04/08 00:32:39;;;;;;;0.80;0.80;;;8.90;99.10;;;;;;5031536;28;20171;-73
2022/04/08 00:35:05;;;;;;;0.80;0.80;;;9.00;99.90;;;;;;5031431;28;20164;-73
2022/04/08 00:37:31;;;;;;;0.70;0.70;;;8.90;99.90;;;;;;5031361;28;20238;-73
2022/04/08 00:39:57;;;;;;;0.70;0.70;;;8.90;99.90;;;;;;5031181;28;20195;-73
2022/04/08 00:42:22;;;;;;;0.70;0.70;;;8.90;99.90;;;;;;5031965;28;20214;-73
2022/04/08 00:44:48;;;;;;;0.70;0.70;;;8.90;99.90;;;;;;5013799;28;20176;-73
2022/04/08 00:47:13;;;;;;;0.70;0.70;;;8.80;99.90;;;;;;5031571;28;20670;-73
2022/04/08 00:49:39;;;;;;;0.77;0.77;;;8.80;99.90;;;;;;5031069;28;20172;-73
2022/04/08 00:52:05;;;;;;;0.70;0.70;;;8.80;99.90;;;;;;5030914;28;20712;-74
2022/04/08 00:54:31;;;;;;;0.70;0.70;;;8.90;1.00;;;;;;5031592;28;20214;-73
2022/04/08 00:56:57;;;;;;;0.80;0.80;;;8.90;6.30;;;;;;5031233;28;20739;-73
2022/04/08 00:59:25;;;;;;;0.80;0.80;;;8.90;6.50;;;;;;5030891;28;20199;-74
2022/04/08 01:01:51;;;;;;;0.80;0.80;;;8.90;1.00;;;;;;5030917;28;20249;-73
2022/04/08 01:04:17;;;;;;;0.80;0.80;;;9.00;1.00;;;;;;5031337;28;20520;-73
2022/04/08 01:06:44;;;;;;;0.60;0.60;;;8.90;1.00;;;;;;5031039;28;20180;-73
2022/04/08 01:09:10;;;;;;;0.80;0.80;;;8.90;1.00;;;;;;5030850;28;20183;-73
2022/04/08 01:11:37;;;;;;;0.70;0.70;;;8.80;72.70;;;;;;5031081;28;20195;-73
2022/04/08 01:14:13;;;;;;;0.70;0.70;;;8.80;1.00;;;;;;5031180;28;20199;-73
2022/04/08 01:16:40;;;;;;;0.70;0.70;;;8.80;1.00;;;;;;5030920;28;20615;-73
2022/04/08 01:19:05;;;;;;;0.80;0.80;;;8.80;1.00;;;;;;5030375;28;20183;-73
2022/04/08 01:21:31;;;;;;;0.70;0.70;;;8.80;1.00;;;;;;5030833;28;20508;-74
2022/04/08 01:23:58;;;;;;;0.70;0.70;;;8.80;1.00;;;;;;5029632;28;20259;-73
2022/04/08 01:26:24;;;;;;;0.70;0.70;;;8.80;1.00;;;;;;5017262;28;20210;-73
2022/04/08 01:28:51;;;;;;;0.70;0.70;;;8.90;1.00;;;;;;5030695;28;20595;-74
2022/04/08 01:31:18;;;;;;;0.70;0.70;;;8.80;1.00;;;;;;5030835;28;20287;-73
2022/04/08 01:33:44;;;;;;;0.70;0.70;;;8.80;1.00;;;;;;5030885;28;20175;-74
2022/04/08 01:36:09;;;;;;;0.70;0.70;;;8.80;1.00;;;;;;5031098;28;20183;-74
2022/04/08 01:38:35;;;;;;;0.70;0.70;;;8.80;1.00;;;;;;5030851;28;20546;-73
2022/04/08 01:41:00;;;;;;;0.73;0.73;;;8.70;1.00;;;;;;5029955;28;20558;-73
2022/04/08 01:43:26;;;;;;;0.67;0.67;;;8.70;1.00;;;;;;5030673;28;20172;-73
2022/04/08 01:45:51;;;;;;;0.67;0.67;;;8.70;1.00;;;;;;5031006;28;20179;-73
2022/04/08 01:48:17;;;;;;;0.70;0.70;;;8.70;1.00;;;;;;5030672;28;20214;-73
2022/04/08 01:50:43;;;;;;;0.63;0.63;;;8.60;1.00;;;;;;5034820;28;20336;-73
2022/04/08 01:53:09;;;;;;;0.70;0.70;;;8.60;1.00;;;;;;5030567;28;20182;-72
2022/04/08 01:55:34;;;;;;;0.70;0.70;;;8.60;1.00;;;;;;5030474;28;20199;-72
2022/04/08 01:58:02;;;;;;;0.70;0.70;;;8.60;26.20;;;;;;5030577;28;20263;-72
2022/04/08 02:00:28;;;;;;;0.70;0.70;;;8.50;34.10;;;;;;5029859;28;20188;-73
2022/04/08 02:02:54;;;;;;;0.70;0.70;;;8.60;23.00;;;;;;5030447;28;20202;-73
2022/04/08 02:05:19;;;;;;;0.80;0.80;;;8.50;1.00;;;;;;5030103;28;20605;-73
2022/04/08 02:07:45;;;;;;;0.70;0.70;;;8.50;57.80;;;;;;5030627;28;20199;-73
2022/04/08 02:10:11;;;;;;;0.70;0.70;;;8.50;91.40;;;;;;5029794;28;20199;-73
2022/04/08 02:12:36;;;;;;;0.80;0.80;;;8.50;20.70;;;;;;5030367;28;20555;-72
2022/04/08 02:15:02;;;;;;;0.70;0.70;;;8.50;1.00;;;;;;5030169;28;20194;-73
2022/04/08 02:17:30;;;;;;;0.70;0.70;;;8.50;1.00;;;;;;5030210;28;20631;-72
2022/04/08 02:19:56;;;;;;;0.70;0.70;;;8.50;1.00;;;;;;5030035;28;20528;-72
2022/04/08 02:22:24;;;;;;;0.80;0.80;;;8.40;1.00;;;;;;5030496;28;20171;-72
2022/04/08 02:24:50;;;;;;;0.80;0.80;;;8.40;1.00;;;;;;5030097;28;20671;-72
2022/04/08 02:27:16;;;;;;;0.70;0.70;;;8.30;1.00;;;;;;5030291;28;20176;-73
2022/04/08 02:29:42;;;;;;;0.80;0.80;;;8.30;1.00;;;;;;5029670;28;20604;-72
2022/04/08 02:32:10;;;;;;;0.80;0.80;;;8.30;1.00;;;;;;5030002;28;20596;-72
2022/04/08 02:34:37;;;;;;;0.80;0.80;;;8.20;1.00;;;;;;5030276;28;20546;-72
2022/04/08 02:37:04;;;;;;;0.80;0.80;;;8.20;1.00;;;;;;5033257;28;20299;-72
2022/04/08 02:39:29;;;;;;;0.70;0.70;;;8.10;1.00;;;;;;5033222;28;20183;-72
2022/04/08 02:41:57;;;;;;;0.80;0.80;;;8.00;11.90;;;;;;5033584;28;20203;-72
2022/04/08 02:44:22;;;;;;;0.70;0.70;;;7.90;99.90;;;;;;5033719;28;20179;-72
2022/04/08 02:46:48;;;;;;;0.70;0.70;;;7.90;99.60;;;;;;5033400;28;20671;-72
2022/04/08 02:49:13;;;;;;;0.70;0.70;;;7.90;99.90;;;;;;5033168;28;20175;-72
2022/04/08 02:51:39;;;;;;;0.80;0.80;;;7.90;99.90;;;;;;5033301;28;20609;-72
2022/04/08 02:54:04;;;;;;;0.70;0.70;;;7.80;99.90;;;;;;5033487;28;20240;-72
2022/04/08 02:56:30;;;;;;;0.70;0.70;;;7.80;99.90;;;;;;5033498;28;20265;-72
2022/04/08 02:58:57;;;;;;;0.80;0.80;;;7.70;99.90;;;;;;5032920;28;20196;-72
2022/04/08 03:01:23;;;;;;;0.80;0.80;;;7.70;99.90;;;;;;5033095;28;20227;-73
2022/04/08 03:03:49;;;;;;;0.70;0.70;;;7.60;1.00;;;;;;5033300;28;20180;-72
2022/04/08 03:06:14;;;;;;;0.80;0.80;;;7.50;1.00;;;;;;5033476;28;20183;-72
2022/04/08 03:08:40;;;;;;;0.70;0.70;;;7.30;1.00;;;;;;5033222;28;20172;-74
2022/04/08 03:11:05;;;;;;;0.70;0.70;;;7.30;99.90;;;;;;5032692;28;20207;-72
2022/04/08 03:13:32;;;;;;;0.70;0.70;;;7.40;99.90;;;;;;5033151;28;20180;-72
2022/04/08 03:15:57;;;;;;;0.70;0.70;;;7.50;1.00;;;;;;5032979;28;20172;-72
2022/04/08 03:18:23;;;;;;;0.70;0.70;;;7.50;1.00;;;;;;5032880;28;20269;-72
2022/04/08 03:20:48;;;;;;;0.70;0.70;;;7.60;1.00;;;;;;5032501;28;20232;-72
2022/04/08 03:23:14;;;;;;;0.80;0.80;;;7.70;99.90;;;;;;5032794;28;20633;-73
2022/04/08 03:25:39;;;;;;;0.70;0.70;;;7.80;1.00;;;;;;5033001;28;20172;-73
2022/04/08 03:28:05;;;;;;;0.73;0.73;;;7.80;1.00;;;;;;5032755;28;20172;-73
2022/04/08 03:30:31;;;;;;;0.70;0.70;;;7.90;1.00;;;;;;5032208;28;20203;-73
2022/04/08 03:32:57;;;;;;;0.80;0.80;;;7.80;1.00;;;;;;5033189;28;20184;-73
2022/04/08 03:35:23;;;;;;;0.77;0.77;;;7.80;1.00;;;;;;5033127;28;20194;-73
2022/04/08 03:37:48;;;;;;;0.80;0.80;;;7.80;1.00;;;;;;5032941;28;20675;-73
2022/04/08 03:40:14;;;;;;;0.70;0.70;;;7.80;1.00;;;;;;5032134;28;20238;-73
2022/04/08 03:42:40;;;;;;;0.70;0.70;;;7.90;1.00;;;;;;5032837;28;20218;-73
2022/04/08 03:45:06;;;;;;;0.70;0.70;;;7.80;1.00;;;;;;5032451;28;20195;-72
2022/04/08 03:47:31;;;;;;;0.70;0.70;;;7.70;1.00;;;;;;5031818;28;20470;-72
2022/04/08 03:49:57;;;;;;;0.80;0.80;;;7.70;1.00;;;;;;5031937;28;20230;-72
2022/04/08 03:52:23;;;;;;;0.80;0.80;;;7.70;1.00;;;;;;5032474;28;20261;-73
2022/04/08 03:54:48;;;;;;;0.80;0.80;;;7.70;1.00;;;;;;5023350;28;20224;-73
2022/04/08 03:57:14;;;;;;;0.70;0.70;;;7.60;1.00;;;;;;5031517;28;20215;-73
2022/04/08 03:59:41;;;;;;;0.80;0.80;;;7.60;1.00;;;;;;5031332;28;20179;-73
2022/04/08 04:02:07;;;;;;;0.80;0.80;;;7.60;1.00;;;;;;5032544;28;20191;-73
2022/04/08 04:04:33;;;;;;;0.80;0.80;;;7.60;1.00;;;;;;5032685;28;20176;-73
2022/04/08 04:06:58;;;;;;;0.80;0.80;;;7.50;1.00;;;;;;5032593;28;20187;-72
2022/04/08 04:09:24;;;;;;;0.70;0.70;;;7.60;1.00;;;;;;5032122;28;20183;-73
2022/04/08 04:11:50;;;;;;;0.70;0.70;;;7.50;1.00;;;;;;5032332;28;20233;-73
2022/04/08 04:14:15;;;;;;;0.70;0.70;;;7.60;1.00;;;;;;5032333;28;20180;-73
2022/04/08 04:16:41;;;;;;;0.70;0.70;;;7.60;1.00;;;;;;5032447;28;20219;-72
2022/04/08 04:19:07;;;;;;;0.70;0.70;;;7.60;1.00;;;;;;5031581;28;20183;-73
2022/04/08 04:21:33;;;;;;;0.70;0.70;;;7.60;1.00;;;;;;5032309;28;20202;-73
2022/04/08 04:23:58;;;;;;;0.70;0.70;;;7.60;1.00;;;;;;5032081;28;20183;-73
2022/04/08 04:26:24;;;;;;;0.70;0.70;;;7.60;1.00;;;;;;5032083;28;20180;-73
2022/04/08 04:28:49;;;;;;;0.80;0.80;;;7.60;1.00;;;;;;5031762;28;20180;-73
2022/04/08 04:31:15;;;;;;;0.70;0.70;;;7.60;1.00;;;;;;5032032;28;20598;-73
2022/04/08 04:33:40;;;;;;;0.70;0.70;;;7.50;1.00;;;;;;5032150;28;20183;-72
2022/04/08 04:36:06;;;;;;;0.70;0.70;;;7.50;1.00;;;;;;5031647;28;20182;-72
2022/04/08 04:38:31;;;;;;;0.70;0.70;;;7.50;1.00;;;;;;5032277;28;20207;-72
2022/04/08 04:40:57;;;;;;;0.80;0.80;;;7.50;1.00;;;;;;5031570;28;20202;-73
2022/04/08 04:43:22;;;;;;;0.80;0.80;;;7.50;1.00;;;;;;5031870;28;20255;-73
2022/04/08 04:45:48;;;;;;;0.70;0.70;;;7.50;1.00;;;;;;5032225;28;20290;-72
2022/04/08 04:48:13;;;;;;;0.70;0.70;;;7.50;1.00;;;;;;5032372;28;20175;-73
2022/04/08 04:50:39;;;;;;;0.70;0.70;;;7.50;1.00;;;;;;5032509;28;20196;-72
2022/04/08 04:53:06;;;;;;;0.80;0.80;;;7.50;1.00;;;;;;5031986;28;20168;-72
2022/04/08 04:55:31;;;;;;;0.77;0.77;;;7.50;9.00;;;;;;5031934;28;20550;-72
2022/04/08 04:57:57;;;;;;;0.70;0.70;;;7.40;99.90;;;;;;5031732;28;20219;-73
2022/04/08 05:00:23;;;;;;;0.73;0.73;;;7.50;99.90;;;;;;5031642;28;20517;-72
2022/04/08 05:02:49;;;;;;;0.70;0.70;;;7.40;99.90;;;;;;5031395;28;20707;-73
2022/04/08 05:05:14;;;;;;;0.70;0.70;;;7.40;99.90;;;;;;5031278;28;20176;-72
2022/04/08 05:07:40;;;;;;;0.70;0.70;;;7.50;99.90;;;;;;5029172;28;20179;-72
2022/04/08 05:10:07;;;;;;;0.70;0.70;;;7.50;52.80;;;;;;5030318;28;20192;-72
2022/04/08 05:12:36;;;;;;;0.70;0.70;;;7.40;99.90;;;;;;5030976;28;20176;-72
2022/04/08 05:15:09;;;;;;;0.70;0.70;;;7.50;99.90;;;;;;5035254;28;20546;-73
2022/04/08 05:17:36;;;;;;;0.63;0.63;;;7.50;99.90;;;;;;5044948;28;20267;-72
2022/04/08 05:20:06;;;;;;;0.63;0.63;;;7.40;99.90;;;;;;5030239;28;20238;-72
2022/04/08 05:22:32;;;;;;;0.50;0.50;;;7.50;99.90;;;;;;5028416;28;20966;-72
2022/04/08 05:24:59;;;;;;;0.60;0.60;;;7.50;99.90;;;;;;5030679;28;20172;-72
2022/04/08 05:27:25;;;;;;;0.80;0.80;;;7.50;1.00;;;;;;5030933;28;20187;-73
2022/04/08 05:29:51;;;;;;;0.70;0.70;;;7.50;1.00;;;;;;5030177;28;20184;-74
2022/04/08 05:32:16;;;;;;;0.70;0.70;;;7.50;99.90;;;;;;5011546;28;20353;-73
2022/04/08 05:34:42;;;;;;;0.80;0.80;;;7.50;99.90;;;;;;5030158;28;20215;-73
2022/04/08 05:37:08;;;;;;;0.70;0.70;;;7.50;99.90;;;;;;5033216;28;20246;-74
2022/04/08 05:39:33;;;;;;;0.60;0.60;;;7.50;99.90;;;;;;5030102;28;20187;-73
2022/04/08 05:41:59;;;;;;;0.70;0.70;;;7.60;99.90;;;;;;5030885;28;20226;-73
2022/04/08 05:44:24;;;;;;;0.70;0.70;;;7.70;99.90;;;;;;5046464;28;20258;-73
2022/04/08 05:46:50;;;;;;;0.70;0.70;;;7.70;99.90;;;;;;5051061;28;20239;-74
2022/04/08 05:49:16;;;;;;;0.73;0.73;;;7.60;99.90;;;;;;5050600;28;20220;-73
2022/04/08 05:51:41;;;;;;;0.70;0.70;;;7.70;99.90;;;;;;5050517;28;20198;-74
2022/04/08 05:54:07;;;;;;;0.70;0.70;;;7.80;99.90;;;;;;5037614;28;20184;-73
2022/04/08 05:56:32;;;;;;;0.63;0.63;;;7.80;99.90;;;;;;5024758;28;20223;-73
2022/04/08 05:58:58;;;;;;;0.80;0.80;;;7.80;99.90;;;;;;5029202;28;20183;-73
2022/04/08 06:01:23;;;;;;;0.70;0.70;;;7.70;1.00;;;;;;5030509;28;20196;-74
2022/04/08 06:03:49;;;;;;;0.70;0.70;;;7.70;1.00;;;;;;5030937;28;20200;-73
2022/04/08 06:06:14;;;;;;;0.70;0.70;;;7.70;99.90;;;;;;5029243;28;20179;-73
2022/04/08 06:08:40;;;;;;;0.70;0.70;;;7.70;1.00;;;;;;5026282;28;20198;-73
2022/04/08 06:11:05;;;;;;;0.70;0.70;;;7.70;12.20;;;;;;5031599;28;20305;-73
2022/04/08 06:13:31;;;;;;;0.70;0.70;;;7.70;1.00;;;;;;5034250;28;20235;-74
2022/04/08 06:15:56;;;;;;;0.70;0.70;;;7.60;99.90;;;;;;5034404;28;20627;-73
2022/04/08 06:18:22;;;;;;;0.70;0.70;;;7.60;99.90;;;;;;5033862;28;20728;-73
2022/04/08 06:20:48;;;;;;;0.70;0.70;;;7.50;1.00;;;;;;5038615;28;20195;-74
2022/04/08 06:23:13;;;;;;;0.80;0.80;;;7.50;1.00;;;;;;5033809;28;20183;-74
2022/04/08 06:25:39;;;;;;;0.70;0.70;;;7.40;1.00;;;;;;5033779;28;20223;-74
2022/04/08 06:28:07;;;;;;;0.73;0.73;;;7.40;1.00;;;;;;5039862;28;20180;-73
2022/04/08 06:30:35;;;;;;;0.70;0.70;;;7.30;99.90;;;;;;5033554;28;20192;-74
2022/04/08 06:33:02;;;;;;;0.70;0.70;;;7.20;99.90;;;;;;5033876;28;20732;-73
2022/04/08 06:35:27;;;;;;;0.80;0.80;;;7.30;99.90;;;;;;5033755;28;20218;-74
2022/04/08 06:38:07;;;;;;;0.80;0.80;;;7.30;99.90;;;;;;5034097;28;20238;-74
2022/04/08 06:40:38;;;;;;;0.80;0.80;;;7.20;99.90;;;;;;5035558;28;20659;-73
2022/04/08 06:43:05;;;;;;;0.77;0.77;;;7.20;99.90;;;;;;5034453;28;20179;-73
2022/04/08 06:45:31;;;;;;;0.70;0.70;;;7.10;99.90;;;;;;5033373;28;20188;-74
2022/04/08 06:47:57;;;;;;;0.70;0.70;;;7.10;99.90;;;;;;5033411;28;20217;-74
2022/04/08 06:50:23;;;;;;;0.70;0.70;;;7.10;99.90;;;;;;5032808;28;20307;-74
2022/04/08 06:52:50;;;;;;;0.70;0.70;;;7.10;1.00;;;;;;5031388;28;20184;-74
2022/04/08 06:55:16;;;;;;;0.80;0.80;;;7.10;1.00;;;;;;5035187;28;20203;-74
2022/04/08 06:57:42;;;;;;;0.80;0.80;;;7.00;99.90;;;;;;5037860;28;20219;-73
2022/04/08 07:00:10;;;;;;;0.80;0.80;;;7.00;1.00;;;;;;5032745;28;20196;-73
2022/04/08 07:02:36;;;;;;;0.83;0.83;;;7.00;1.00;;;;;;5039350;28;20207;-74
2022/04/08 07:05:03;;;;;;;0.80;0.80;;;6.90;1.00;;;;;;5031555;28;20182;-74
2022/04/08 07:07:32;;;;;;;0.80;0.80;;;6.90;1.00;;;;;;5033503;28;20293;-75
2022/04/08 07:09:58;;;;;;;0.70;0.70;;;6.80;1.00;;;;;;5032973;28;20223;-73
2022/04/08 07:12:27;;;;;;;0.70;0.70;;;6.80;1.00;;;;;;5033067;28;20646;-74
2022/04/08 07:14:53;;;;;;;0.70;0.70;;;6.80;1.00;;;;;;5033100;28;20273;-73
2022/04/08 07:17:25;;;;;;;0.80;0.80;;;6.80;1.00;;;;;;5033189;28;20623;-73
2022/04/08 07:19:51;;;;;;;0.70;0.70;;;6.80;1.00;;;;;;5032688;28;20561;-74
2022/04/08 07:22:16;;;;;;;0.70;0.70;;;6.80;1.00;;;;;;5031974;28;20262;-74
2022/04/08 07:24:42;;;;;;;0.80;0.80;;;6.80;1.00;;;;;;5033419;28;20172;-73
2022/04/08 07:27:07;;;;;;;0.67;0.67;;;6.70;1.00;;;;;;5033368;28;20172;-74
2022/04/08 07:29:33;;;;;;;0.77;0.77;;;6.70;1.00;;;;;;5028327;28;20259;-73
2022/04/08 07:31:59;;;;;;;0.70;0.70;;;6.80;27.40;;;;;;5032904;28;20195;-74
2022/04/08 07:34:24;;;;;;;0.77;0.77;;;6.90;5.50;;;;;;5032833;28;20589;-73
2022/04/08 07:36:50;;;;;;;0.70;0.70;;;6.90;37.40;;;;;;5033075;28;20250;-74
2022/04/08 07:39:15;;;;;;;0.70;0.70;;;6.80;1.00;;;;;;5032407;28;20168;-73
2022/04/08 07:41:41;;;;;;;0.70;0.70;;;6.90;1.00;;;;;;5032944;28;20208;-73
2022/04/08 07:44:06;;;;;;;0.70;0.70;;;6.90;5.40;;;;;;5032707;28;20663;-73
2022/04/08 07:46:32;;;;;;;0.70;0.70;;;6.90;4.90;;;;;;5030632;28;20180;-73
2022/04/08 07:48:57;;;;;;;0.70;0.70;;;6.80;99.90;;;;;;5031875;28;20203;-72
2022/04/08 07:51:23;;;;;;;0.80;0.80;;;6.80;2.40;;;;;;5032967;28;20200;-72
2022/04/08 07:53:48;;;;;;;0.70;0.70;;;6.80;25.40;;;;;;5032898;28;20317;-75
2022/04/08 07:56:14;;;;;;;0.80;0.80;;;6.80;1.00;;;;;;5030889;28;20180;-74
2022/04/08 07:58:39;;;;;;;0.70;0.70;;;6.70;49.60;;;;;;5033198;28;20187;-74
2022/04/08 08:01:05;;;;;;;0.70;0.70;;;6.80;99.90;;;;;;5031742;28;20208;-73
2022/04/08 08:03:34;;;;;;;0.70;0.70;;;7.00;99.90;;;;;;5032135;28;20188;-73
2022/04/08 08:06:01;;;;;;;0.80;0.80;;;7.00;1.00;;;;;;5032195;28;20631;-73
2022/04/08 08:08:27;;;;;;;0.73;0.73;;;7.00;19.00;;;;;;5032265;28;20315;-72
2022/04/08 08:10:52;;;;;;;0.70;0.70;;;7.10;99.90;;;;;;5031993;28;20274;-73
2022/04/08 08:13:18;;;;;;;0.80;0.80;;;7.20;99.90;;;;;;5032344;28;20270;-73
2022/04/08 08:15:43;;;;;;;0.70;0.70;;;7.20;99.90;;;;;;5032126;28;20179;-74
2022/04/08 08:18:09;;;;;;;0.70;0.70;;;7.00;1.00;;;;;;5031678;28;20219;-73
2022/04/08 08:20:34;;;;;;;0.70;0.70;;;7.00;99.90;;;;;;5037841;28;20204;-73
2022/04/08 08:23:00;;;;;;;0.73;0.73;;;7.00;1.00;;;;;;5032885;28;20184;-73
2022/04/08 08:25:26;;;;;;;0.70;0.70;;;7.00;1.00;;;;;;5032679;28;20176;-73
2022/04/08 08:27:53;;;;;;;0.70;0.70;;;7.00;1.00;;;;;;5032562;28;20192;-73
2022/04/08 08:30:18;;;;;;;0.70;0.70;;;6.90;1.00;;;;;;5030886;28;20639;-73
2022/04/08 08:32:49;;;;;;;0.70;0.70;;;6.90;72.30;;;;;;5037330;28;20215;-73
2022/04/08 08:35:18;;;;;;;0.80;0.80;;;7.00;99.90;;;;;;5032469;28;20172;-72
2022/04/08 08:37:43;;;;;;;0.70;0.70;;;6.90;99.90;;;;;;5032336;28;20223;-72
2022/04/08 08:40:11;;;;;;;0.70;0.70;;;7.00;99.90;;;;;;5031379;28;20200;-73
2022/04/08 08:42:38;;;;;;;0.70;0.70;;;6.80;99.90;;;;;;5032697;28;20179;-72
2022/04/08 08:45:05;;;;;;;0.70;0.70;;;6.70;99.90;;;;;;5031898;28;20667;-72
2022/04/08 08:47:31;;;;;;;0.70;0.70;;;6.90;99.90;;;;;;5031890;28;20779;-72
2022/04/08 08:49:57;;;;;;;0.70;0.70;;;6.90;99.90;;;;;;5031453;28;20214;-72
2022/04/08 08:52:23;;;;;;;0.70;0.70;;;6.80;99.90;;;;;;5032176;28;20176;-71
2022/04/08 08:54:50;;;;;;;0.73;0.73;;;6.90;99.90;;;;;;5031940;28;20188;-71
2022/04/08 08:57:20;;;;;;;0.70;0.70;;;7.00;99.90;;;;;;5031601;28;20216;-72
2022/04/08 08:59:47;;;;;;;0.70;0.70;;;7.20;99.90;;;;;;5031114;28;20549;-72
2022/04/08 09:02:18;;;;;;;0.70;0.70;;;7.10;99.90;;;;;;5030832;28;20590;-72
2022/04/08 09:04:43;;;;;;;0.70;0.70;;;7.20;99.90;;;;;;5029012;28;20180;-71
2022/04/08 09:07:24;;;;;;;0.80;0.80;;;7.00;99.90;;;;;;5031095;28;20182;-72
2022/04/08 09:09:52;;;;;;;0.70;0.70;;;6.90;99.90;;;;;;5030675;28;20183;-72
2022/04/08 09:12:18;;;;;;;0.70;0.70;;;7.10;99.90;;;;;;5030420;28;20190;-72
2022/04/08 09:14:52;;;;;;;0.70;0.70;;;7.30;99.90;;;;;;5030966;28;20172;-72
2022/04/08 09:17:19;;;;;;;0.70;0.70;;;7.50;99.90;;;;;;5031365;28;20617;-73
2022/04/08 09:19:49;;;;;;;0.80;0.80;;;7.40;99.90;;;;;;5030605;28;20199;-72
2022/04/08 09:22:15;;;;;;;0.70;0.70;;;7.50;99.90;;;;;;5031493;28;20184;-72
2022/04/08 09:24:40;;;;;;;0.60;0.60;;;7.50;99.90;;;;;;5031290;28;20171;-72
2022/04/08 09:27:06;;;;;;;0.73;0.73;;;7.50;99.90;;;;;;5031554;28;20210;-72
2022/04/08 09:29:33;;;;;;;0.70;0.70;;;7.50;99.90;;;;;;5030835;28;20172;-73
2022/04/08 09:31:59;;;;;;;0.70;0.70;;;7.50;99.90;;;;;;5031217;28;20579;-71
2022/04/08 09:34:24;;;;;;;0.63;0.63;;;7.70;99.90;;;;;;5031253;28;20172;-71
2022/04/08 09:36:50;;;;;;;0.60;0.60;;;7.70;99.90;;;;;;5031313;28;20207;-72
2022/04/08 09:39:16;;;;;;;0.70;0.70;;;7.50;99.90;;;;;;5030093;28;20186;-72
2022/04/08 09:41:43;;;;;;;0.80;0.80;;;7.50;99.90;;;;;;5030910;28;20188;-72
2022/04/08 09:44:10;;;;;;;0.60;0.60;;;7.40;99.90;;;;;;5031014;28;20271;-73
2022/04/08 09:46:36;;;;;;;0.73;0.73;;;7.50;21.70;;;;;;5031786;28;20179;-72
2022/04/08 09:49:06;;;;;;;0.80;0.80;;;7.60;99.90;;;;;;5034468;28;20188;-71
2022/04/08 09:51:40;;;;;;;0.70;0.70;;;7.70;99.90;;;;;;5034651;28;20235;-72
2022/04/08 09:54:12;;;;;;;0.70;0.70;;;7.60;99.90;;;;;;5035115;28;20192;-73
2022/04/08 09:56:38;;;;;;;0.80;0.80;;;7.70;99.90;;;;;;5035103;28;20204;-73
2022/04/08 09:59:05;;;;;;;0.70;0.70;;;7.80;99.90;;;;;;5034604;28;20598;-73
2022/04/08 10:01:31;;;;;;;0.60;0.60;;;7.80;99.90;;;;;;5035256;28;20258;-73
2022/04/08 10:03:56;;;;;;;0.70;0.70;;;7.60;99.90;;;;;;5033969;28;20172;-72
2022/04/08 10:06:24;;;;;;;0.60;0.60;;;7.60;99.90;;;;;;5033116;28;20186;-73
2022/04/08 10:08:50;;;;;;;0.60;0.60;;;7.40;99.90;;;;;;5031347;28;20299;-72
2022/04/08 10:11:29;;;;;;;0.70;0.70;;;7.70;99.90;;;;;;5031950;28;20227;-72
2022/04/08 10:13:58;;;;;;;0.70;0.70;;;7.50;99.90;;;;;;5031692;28;20194;-72
2022/04/08 10:16:24;;;;;;;0.70;0.70;;;7.40;99.90;;;;;;5036658;28;20176;-73
2022/04/08 10:18:50;;;;;;;0.70;0.70;;;7.60;99.90;;;;;;5026819;28;20187;-74
2022/04/08 10:21:16;;;;;;;0.77;0.77;;;7.70;99.90;;;;;;5032810;28;20242;-73
2022/04/08 10:23:55;;;;;;;0.70;0.70;;;8.00;99.90;;;;;;5034174;28;20656;-73
2022/04/08 10:26:23;;;;;;;0.70;0.70;;;7.70;99.90;;;;;;5033503;28;20179;-73
2022/04/08 10:28:50;;;;;;;0.70;0.70;;;7.70;99.90;;;;;;5034566;28;20180;-73
2022/04/08 10:31:26;;;;;;;0.70;0.70;;;7.90;99.90;;;;;;5033836;28;20203;-73
2022/04/08 10:33:59;;;;;;;0.60;0.60;;;7.80;99.90;;;;;;5034713;28;20258;-73
2022/04/08 10:36:35;;;;;;;0.70;0.70;;;7.60;99.90;;;;;;5034204;28;20175;-73
2022/04/08 10:39:22;;;;;;;0.70;0.70;;;7.70;99.90;;;;;;5033397;28;20172;-72
2022/04/08 10:41:53;;;;;;;0.70;0.70;;;7.50;99.90;;;;;;5033702;28;20199;-73
2022/04/08 10:44:41;;;;;;;0.80;0.80;;;7.50;99.90;;;;;;5034305;28;20168;-72
2022/04/08 10:47:15;;;;;;;0.80;0.80;;;7.60;99.90;;;;;;5033768;28;20279;-72
2022/04/08 10:49:51;;;;;;;0.70;0.70;;;7.60;99.90;;;;;;5033159;28;20267;-73
2022/04/08 10:52:21;;;;;;;0.70;0.70;;;7.60;99.90;;;;;;5033296;28;20263;-73
2022/04/08 10:54:47;;;;;;;0.70;0.70;;;7.60;99.90;;;;;;5033777;28;20191;-73
2022/04/08 10:57:13;;;;;;;0.70;0.70;;;7.60;99.90;;;;;;5033545;28;20219;-72
2022/04/08 10:59:39;;;;;;;0.70;0.70;;;7.60;99.90;;;;;;5033184;28;20171;-73
2022/04/08 11:02:06;;;;;;;0.70;0.70;;;7.50;99.90;;;;;;5033446;28;20267;-72
2022/04/08 11:04:32;;;;;;;0.70;0.70;;;7.50;99.90;;;;;;5033318;28;20184;-73
2022/04/08 11:07:06;;;;;;;0.80;0.80;;;7.50;99.90;;;;;;5033243;28;20180;-73
2022/04/08 11:09:32;;;;;;;0.70;0.70;;;7.30;99.90;;;;;;5033064;28;20187;-74
2022/04/08 11:11:58;;;;;;;0.70;0.70;;;7.40;99.90;;;;;;5033081;28;20669;-72
2022/04/08 11:14:26;;;;;;;0.70;0.70;;;7.40;99.90;;;;;;5033354;28;20220;-73
2022/04/08 11:16:51;;;;;;;0.73;0.73;;;7.30;99.90;;;;;;5032835;28;20617;-72
2022/04/08 11:19:20;;;;;;;0.80;0.80;;;7.30;99.90;;;;;;5032086;28;20248;-73
2022/04/08 11:21:47;;;;;;;0.83;0.83;;;7.40;99.90;;;;;;5033222;28;20195;-72
2022/04/08 11:24:14;;;;;;;0.60;0.60;;;7.40;99.90;;;;;;5033106;28;20176;-71
2022/04/08 11:26:42;;;;;;;0.70;0.70;;;7.70;99.90;;;;;;5033341;28;20199;-72
2022/04/08 11:29:17;;;;;;;0.80;0.80;;;7.80;99.90;;;;;;5032516;28;20281;-72
2022/04/08 11:31:44;;;;;;;0.60;0.60;;;7.80;99.90;;;;;;5032825;28;20573;-72
2022/04/08 11:34:10;;;;;;;0.70;0.70;;;7.60;99.90;;;;;;5033050;28;20306;-72
2022/04/08 11:36:37;;;;;;;0.80;0.80;;;7.50;99.90;;;;;;5033158;28;20558;-71
2022/04/08 11:39:04;;;;;;;0.73;0.73;;;7.40;99.90;;;;;;5032384;28;20184;-71
2022/04/08 11:41:30;;;;;;;0.70;0.70;;;7.80;99.90;;;;;;5046970;28;20203;-71
2022/04/08 11:43:56;;;;;;;0.70;0.70;;;7.70;99.90;;;;;;5037722;28;20242;-71
2022/04/08 11:46:22;;;;;;;0.67;0.67;;;7.70;99.90;;;;;;5031935;28;20191;-71
2022/04/08 11:48:49;;;;;;;0.70;0.70;;;7.60;99.90;;;;;;5029480;28;20229;-71
2022/04/08 11:51:21;;;;;;;0.70;0.70;;;7.80;99.90;;;;;;5032189;28;20219;-71
2022/04/08 11:53:51;;;;;;;0.70;0.70;;;7.80;99.90;;;;;;5032420;28;20171;-71
2022/04/08 11:56:22;;;;;;;0.80;0.80;;;7.80;99.90;;;;;;5034489;28;20191;-71
2022/04/08 11:59:04;;;;;;;0.80;0.80;;;7.70;99.90;;;;;;5031557;28;20216;-71
2022/04/08 12:01:36;;;;;;;0.70;0.70;;;7.60;99.90;;;;;;5029853;28;20249;-72
2022/04/08 12:04:03;;;;;;;0.70;0.70;;;7.70;99.90;;;;;;5031720;28;20172;-71
2022/04/08 12:06:41;;;;;;;0.70;0.70;;;7.70;99.90;;;;;;5031877;28;20176;-71
2022/04/08 12:09:11;;;;;;;0.80;0.80;;;7.70;99.90;;;;;;5027609;28;20179;-72
2022/04/08 12:11:38;;;;;;;0.70;0.70;;;7.90;99.90;;;;;;5033730;28;20697;-72
2022/04/08 12:14:08;;;;;;;0.70;0.70;;;8.00;99.90;;;;;;5036124;28;20218;-72
2022/04/08 12:16:34;;;;;;;0.80;0.80;;;7.30;99.90;;;;;;5035242;28;20186;-72
2022/04/08 12:19:02;;;;;;;0.90;0.90;;;8.10;99.90;;;;;;5033892;28;20194;-72
2022/04/08 12:21:29;;;;;;;0.80;0.80;;;7.90;99.90;;;;;;5034831;28;20199;-74
2022/04/08 12:23:57;;;;;;;0.73;0.73;;;7.80;99.90;;;;;;5031455;28;20190;-72
2022/04/08 12:26:28;;;;;;;0.80;0.80;;;7.60;99.90;;;;;;5032265;28;20176;-73
2022/04/08 12:29:13;;;;;;;0.70;0.70;;;7.30;99.90;;;;;;5031384;28;20278;-73
2022/04/08 12:31:46;;;;;;;0.70;0.70;;;7.50;99.90;;;;;;5033905;28;20192;-72
2022/04/08 12:34:14;;;;;;;0.70;0.70;;;7.70;99.90;;;;;;5044215;28;20183;-72
2022/04/08 12:36:41;;;;;;;0.63;0.63;;;7.70;99.90;;;;;;5051940;28;20164;-72
2022/04/08 12:39:07;;;;;;;0.70;0.70;;;7.70;99.90;;;;;;5051354;28;20187;-71
2022/04/08 12:41:33;;;;;;;0.70;0.70;;;7.40;99.90;;;;;;5051837;28;20199;-72
2022/04/08 12:43:59;;;;;;;0.80;0.80;;;7.40;99.90;;;;;;5051532;28;20542;-72
2022/04/08 12:46:24;;;;;;;0.60;0.60;;;7.30;99.90;;;;;;5051471;28;20686;-72
2022/04/08 12:48:50;;;;;;;0.63;0.63;;;7.30;99.90;;;;;;5032383;28;20183;-73
2022/04/08 12:51:15;;;;;;;0.70;0.70;;;7.40;99.90;;;;;;5036194;28;20202;-72
2022/04/08 12:53:41;;;;;;;0.80;0.80;;;7.50;99.90;;;;;;5033115;28;20182;-72
2022/04/08 12:56:06;;;;;;;0.80;0.80;;;7.50;99.90;;;;;;5031337;28;20207;-72
2022/04/08 12:58:32;;;;;;;0.70;0.70;;;7.20;99.90;;;;;;5037851;28;20258;-71